Time;durP1;ratioP1;P1;durP2;ratioP2;P2;SDS_P1;SDS_P2;PMS_P1;PMS_P2;Temp;Humidity;BMP_temperature;BMP_pressure;BME280_temperature;BME280_humidity;BME280_pressure;Samples;Min_cycle;Max_cycle;Signal;HPM_P1;HPM_P2
2022/02/12 00:00:49;;;;;;;205.10;123.50;;;128.40;2252.80;;;;;;4919303;29;20020;-79
2022/02/12 00:03:16;;;;;;;174.38;104.05;;;128.50;2252.80;;;;;;4950629;29;20102;-80
2022/02/12 00:05:42;;;;;;;146.98;91.07;;;128.60;2252.80;;;;;;4949930;29;20028;-81
2022/02/12 00:08:09;;;;;;;168.65;102.68;;;128.60;2252.80;;;;;;4936224;29;20412;-80
2022/02/12 00:10:35;;;;;;;194.75;114.40;;;128.40;2252.80;;;;;;4951325;29;20024;-80
2022/02/12 00:13:01;;;;;;;182.63;104.90;;;128.40;2252.80;;;;;;4950622;29;20019;-79
2022/02/12 00:15:27;;;;;;;200.65;116.90;;;128.40;2252.80;;;;;;4919122;29;20080;-79
2022/02/12 00:17:56;;;;;;;224.38;130.23;;;128.20;2252.80;;;;;;4950571;29;20075;-77
2022/02/12 00:20:22;;;;;;;205.30;117.70;;;128.30;2252.80;;;;;;4950271;29;20028;-78
2022/02/12 00:26:25;;;;;;;89.72;58.08;;;128.10;2252.80;;;;;;4914916;29;20055;-77
2022/02/12 00:28:51;;;;;;;101.18;55.60;;;128.30;2252.80;;;;;;4899895;29;20611;-77
2022/02/12 00:31:17;;;;;;;67.75;39.78;;;128.40;2252.80;;;;;;4900080;29;20032;-78
2022/02/12 00:33:44;;;;;;;54.67;33.20;;;128.70;2252.80;;;;;;4899392;29;20046;-78
2022/02/12 00:36:09;;;;;;;54.67;29.70;;;153.70;2252.80;;;;;;4900011;29;20032;-77
2022/02/12 00:38:35;;;;;;;53.47;31.38;;;154.10;2252.80;;;;;;4899985;29;20340;-82
2022/02/12 00:41:01;;;;;;;59.35;35.05;;;154.40;2252.80;;;;;;4899134;29;20375;-77
2022/02/12 00:47:11;;;;;;;94.18;51.38;;;154.50;2252.80;;;;;;4899976;29;20507;-78
2022/02/12 00:49:54;;;;;;;90.05;50.90;;;154.50;2252.80;;;;;;4902052;29;20051;-77
2022/02/12 00:52:37;;;;;;;115.93;62.35;;;179.20;2252.80;;;;;;4900031;29;20079;-79
2022/02/12 00:58:53;;;;;;;46.72;28.08;;;179.50;2252.80;;;;;;4916747;29;20028;-76
2022/02/12 01:01:39;;;;;;;48.92;31.25;;;179.70;2252.80;;;;;;4899173;29;20040;-76
2022/02/12 01:11:43;;;;;;;67.68;41.97;;;180.10;2252.80;;;;;;4845625;29;20025;-75
2022/02/12 01:36:02;;;;;;;45.35;31.85;;;204.80;2252.80;;;;;;4770574;30;20127;-76
2022/02/12 01:38:48;;;;;;;54.95;37.22;;;180.10;2252.80;;;;;;4780770;30;20039;-75
2022/02/12 01:41:17;;;;;;;61.30;40.70;;;205.00;2252.80;;;;;;4784379;30;20040;-78
2022/02/12 01:43:43;;;;;;;89.03;50.90;;;180.00;2252.80;;;;;;4787653;29;20575;-78
2022/02/12 01:46:47;;;;;;;105.57;59.05;;;179.90;2252.80;;;;;;4815857;29;20132;-76
2022/02/12 01:49:19;;;;;;;167.70;84.90;;;179.90;2252.80;;;;;;4843778;29;20428;-76
2022/02/12 01:55:22;;;;;;;46.08;29.77;;;179.90;2252.80;;;;;;4878502;29;20481;-77
2022/02/12 01:58:06;;;;;;;36.05;24.77;;;180.00;2252.80;;;;;;4850716;29;20108;-77
2022/02/12 02:00:51;;;;;;;29.27;23.20;;;180.00;2252.80;;;;;;4845166;29;20029;-78
2022/02/12 02:03:17;;;;;;;41.72;26.33;;;180.00;2252.80;;;;;;4868431;29;20079;-75
2022/02/12 02:05:46;;;;;;;56.85;35.60;;;180.00;2252.80;;;;;;4884204;29;20029;-76
2022/02/12 02:08:14;;;;;;;67.63;40.50;;;180.10;2252.80;;;;;;4884399;29;20025;-75
2022/02/12 02:10:40;;;;;;;47.22;31.35;;;180.10;2252.80;;;;;;4884430;29;20088;-75
2022/02/12 02:13:06;;;;;;;35.50;23.50;;;180.10;2252.80;;;;;;4884016;29;20480;-76
2022/02/12 02:15:31;;;;;;;18.13;14.15;;;204.80;2252.80;;;;;;4901311;29;20084;-77
2022/02/12 02:17:57;;;;;;;18.35;13.35;;;204.90;2252.80;;;;;;4884237;29;20031;-77
2022/02/12 02:20:23;;;;;;;17.65;13.88;;;205.00;2252.80;;;;;;4883884;29;20449;-77
2022/02/12 02:22:57;;;;;;;19.63;15.57;;;205.10;2252.80;;;;;;4901039;29;20024;-78
2022/02/12 02:25:24;;;;;;;24.40;14.70;;;205.20;2252.80;;;;;;4884015;29;20075;-75
2022/02/12 02:27:50;;;;;;;28.40;17.23;;;205.20;2252.80;;;;;;4883544;29;20025;-78
2022/02/12 02:30:19;;;;;;;17.98;11.30;;;205.20;2252.80;;;;;;4889574;29;20054;-79
2022/02/12 02:32:49;;;;;;;16.55;11.23;;;205.10;2252.80;;;;;;4902325;29;20048;-77
2022/02/12 03:38:25;;;;;;;7.63;5.30;;;179.80;2252.80;;;;;;4787434;29;20093;-79
2022/02/12 03:41:34;;;;;;;9.75;5.10;;;179.80;2252.80;;;;;;4797185;29;20076;-77
2022/02/12 03:44:25;;;;;;;8.57;4.30;;;179.80;2252.80;;;;;;4790098;29;20033;-77
2022/02/12 03:47:22;;;;;;;7.53;4.30;;;179.70;2252.80;;;;;;4870669;29;20036;-76
2022/02/12 03:54:15;;;;;;;11.77;6.22;;;179.60;2252.80;;;;;;4839981;29;20033;-77
2022/02/12 04:04:53;;;;;;;;;;;;;;;;;;;;;
2022/02/12 04:08:28;;;;;;;12.75;6.20;;;179.60;2252.80;;;;;;4716319;30;20541;-77
2022/02/12 04:15:07;;;;;;;9.80;5.78;;;179.60;2252.80;;;;;;4695483;30;20077;-77
2022/02/12 04:21:30;;;;;;;12.68;7.07;;;179.70;2252.80;;;;;;4692866;30;20041;-77
2022/02/12 04:24:49;;;;;;;17.83;9.23;;;179.70;2252.80;;;;;;4732876;30;20057;-76
2022/02/12 04:28:13;;;;;;;;;;;;;;;;;;;;;
2022/02/12 04:34:19;;;;;;;13.35;7.40;;;179.40;2252.80;;;;;;4741076;30;20123;-78
2022/02/12 04:37:15;;;;;;;17.25;11.75;;;179.50;2252.80;;;;;;4769168;29;20065;-77
2022/02/12 04:40:15;;;;;;;45.00;28.40;;;179.60;2252.80;;;;;;4861746;29;20061;-79
2022/02/12 04:43:49;;;;;;;24.95;12.80;;;179.60;2252.80;;;;;;4861888;29;20093;-76
2022/02/12 04:46:20;;;;;;;23.48;15.88;;;179.50;2252.80;;;;;;4870942;29;20479;-78
2022/02/12 04:49:05;;;;;;;6.55;4.10;;;179.60;2252.80;;;;;;4900791;29;20035;-77
2022/02/12 04:54:26;;;;;;;26.08;13.95;;;179.50;2252.80;;;;;;4920897;29;20479;-76
2022/02/12 04:56:55;;;;;;;21.95;11.25;;;179.50;2252.80;;;;;;4904554;29;20028;-77
2022/02/12 04:59:24;;;;;;;42.42;20.30;;;154.50;2252.80;;;;;;4904107;29;20092;-78
2022/02/12 05:01:50;;;;;;;35.20;19.38;;;180.10;2252.80;;;;;;4904073;29;20106;-76
2022/02/12 05:04:17;;;;;;;33.90;16.30;;;179.50;2252.80;;;;;;4903928;29;20028;-79
2022/02/12 05:06:49;;;;;;;22.38;13.23;;;179.50;2252.80;;;;;;4903817;29;20051;-78
2022/02/12 05:09:18;;;;;;;31.92;15.00;;;179.50;2252.80;;;;;;4904306;29;20035;-78
2022/02/12 05:11:46;;;;;;;30.08;14.48;;;179.40;2252.80;;;;;;4905423;29;20030;-77
2022/02/12 05:14:19;;;;;;;29.58;15.57;;;179.40;2252.80;;;;;;4903728;29;20028;-77
2022/02/12 05:16:51;;;;;;;32.85;16.52;;;179.30;2252.80;;;;;;4903801;29;20083;-77
2022/02/12 05:19:44;;;;;;;26.57;12.73;;;179.30;2252.80;;;;;;4904056;29;20547;-76
2022/02/12 05:25:50;;;;;;;23.70;12.45;;;179.30;2252.80;;;;;;4922252;29;20043;-77
2022/02/12 05:28:59;;;;;;;;;;;;;;;;;;;;;
2022/02/12 05:31:47;;;;;;;12.82;7.38;;;154.50;2252.80;;;;;;4920934;29;20028;-77
2022/02/12 05:34:13;;;;;;;15.88;7.70;;;179.20;2252.80;;;;;;4935878;29;20048;-77
2022/02/12 05:36:39;;;;;;;10.85;5.95;;;179.30;2252.80;;;;;;4936636;29;20448;-76
2022/02/12 05:39:05;;;;;;;9.50;5.85;;;179.30;2252.80;;;;;;4935448;29;20048;-77
2022/02/12 05:41:31;;;;;;;11.40;7.15;;;179.20;2252.80;;;;;;4934662;29;20055;-76
2022/02/12 05:43:58;;;;;;;27.13;15.48;;;179.20;2252.80;;;;;;4935134;29;20439;-76
2022/02/12 05:46:23;;;;;;;10.90;6.32;;;179.20;2252.80;;;;;;4903478;29;20035;-78
2022/02/12 05:48:49;;;;;;;11.32;4.95;;;179.20;2252.80;;;;;;4934777;29;20024;-76
2022/02/12 05:51:34;;;;;;;8.88;4.68;;;179.20;2252.80;;;;;;4903406;29;20483;-76
2022/02/12 05:58:20;;;;;;;;;;;;;;;;;;;;;
2022/02/12 06:15:40;;;;;;;;;;;;;;;;;;;;;
2022/02/12 06:18:19;;;;;;;15.57;9.95;;;154.50;2252.80;;;;;;4912379;29;20027;-77
2022/02/12 06:26:11;;;;;;;;;;;;;;;;;;;;;
2022/02/12 06:29:26;;;;;;;12.93;9.43;;;179.30;2252.80;;;;;;4785233;30;20031;-77
2022/02/12 06:39:17;;;;;;;23.60;17.60;;;179.50;2252.80;;;;;;4876776;29;20040;-79
2022/02/12 06:42:24;;;;;;;;;;;;;;;;;;;;;
2022/02/12 06:45:15;;;;;;;24.77;17.63;;;179.50;2252.80;;;;;;4879527;29;20051;-77
2022/02/12 06:47:53;;;;;;;17.77;13.07;;;179.50;2252.80;;;;;;4863803;29;20048;-76
2022/02/12 06:50:37;;;;;;;23.75;13.70;;;179.60;2252.80;;;;;;4863768;29;20040;-76
2022/02/12 06:56:27;;;;;;;31.70;17.17;;;179.70;2252.80;;;;;;4893256;29;20043;-79
2022/02/12 06:59:43;;;;;;;39.65;24.60;;;179.70;2252.80;;;;;;4901839;29;20460;-78
2022/02/12 07:02:29;;;;;;;32.40;19.52;;;179.70;2252.80;;;;;;4902090;29;20036;-78
2022/02/12 07:05:06;;;;;;;26.73;16.38;;;179.80;2252.80;;;;;;4901766;29;20375;-75
2022/02/12 07:08:04;;;;;;;23.25;14.38;;;179.40;2252.80;;;;;;4901628;29;20379;-78
2022/02/12 07:10:52;;;;;;;11.88;8.30;;;179.70;2252.80;;;;;;4826551;29;20424;-77
2022/02/12 07:13:28;;;;;;;12.52;8.52;;;179.60;2252.80;;;;;;4847369;29;20464;-75
2022/02/12 07:15:56;;;;;;;10.27;6.68;;;179.70;2252.80;;;;;;4932585;29;20051;-78
2022/02/12 07:18:33;;;;;;;9.50;5.85;;;179.70;2252.80;;;;;;4930949;29;20126;-76
2022/02/12 07:20:59;;;;;;;15.07;11.07;;;179.60;2252.80;;;;;;4934250;29;20183;-77
2022/02/12 07:23:33;;;;;;;20.17;14.63;;;179.70;2252.80;;;;;;4906753;29;20035;-75
2022/02/12 07:25:58;;;;;;;30.45;18.40;;;179.80;2252.80;;;;;;4907917;29;20036;-77
2022/02/12 07:28:27;;;;;;;48.90;29.42;;;179.70;2252.80;;;;;;4906827;29;20024;-75
2022/02/12 07:30:55;;;;;;;62.45;37.35;;;179.80;2252.80;;;;;;4905740;29;20080;-78
2022/02/12 07:33:24;;;;;;;53.75;28.42;;;179.90;2252.80;;;;;;4904804;29;20387;-77
2022/02/12 07:37:00;;;;;;;47.47;26.10;;;179.90;2252.80;;;;;;4906459;29;20088;-79
2022/02/12 07:39:11;;;;;;;25.90;16.42;;;179.90;2252.80;;;;;;4912593;29;20047;-77
2022/02/12 07:42:02;;;;;;;22.23;13.95;;;179.90;2252.80;;;;;;4905722;29;20024;-77
2022/02/12 07:44:38;;;;;;;45.67;27.52;;;179.90;2252.80;;;;;;4905894;29;20035;-76
2022/02/12 07:47:09;;;;;;;32.72;19.27;;;180.00;2252.80;;;;;;4904729;29;20460;-77
2022/02/12 07:53:13;;;;;;;34.78;24.42;;;180.00;2252.80;;;;;;4843884;29;20038;-78
2022/02/12 07:55:48;;;;;;;;;;;180.10;2252.80;;;;;;4901849;29;20099;-78
2022/02/12 07:58:20;;;;;;;30.08;18.50;;;180.10;2252.80;;;;;;4923538;29;19895;-78
2022/02/12 08:00:51;;;;;;;32.90;18.23;;;180.10;2252.80;;;;;;4924255;29;20119;-75
2022/02/12 08:03:17;;;;;;;17.88;9.57;;;180.10;2252.80;;;;;;4924099;29;20032;-79
2022/02/12 08:05:43;;;;;;;10.75;6.15;;;180.10;2252.80;;;;;;4940330;29;20043;-78
2022/02/12 08:08:23;;;;;;;24.35;12.40;;;180.10;2252.80;;;;;;4932965;29;20020;-76
2022/02/12 08:13:36;;;;;;;18.30;10.95;;;180.10;2252.80;;;;;;4918141;29;20035;-76
2022/02/12 08:16:06;;;;;;;20.27;11.52;;;180.10;2252.80;;;;;;4900442;29;20032;-76
2022/02/12 08:18:39;;;;;;;18.98;11.65;;;204.80;2252.80;;;;;;4901122;29;20106;-78
2022/02/12 08:21:07;;;;;;;34.35;17.15;;;204.80;2252.80;;;;;;4900780;29;20130;-79
2022/02/12 08:23:33;;;;;;;43.03;23.10;;;204.80;2252.80;;;;;;4900741;29;20024;-77
2022/02/12 08:25:59;;;;;;;31.95;19.02;;;204.90;2252.80;;;;;;4900610;29;20024;-78
2022/02/12 08:28:25;;;;;;;26.55;17.40;;;205.00;2252.80;;;;;;4900778;29;20020;-79
2022/02/12 08:30:54;;;;;;;25.05;13.20;;;205.00;2252.80;;;;;;4900619;29;20416;-80
2022/02/12 08:33:20;;;;;;;43.22;27.00;;;205.00;2252.80;;;;;;4899484;29;20047;-77
2022/02/12 08:35:49;;;;;;;47.80;36.08;;;205.00;2252.80;;;;;;4900384;29;20036;-76
2022/02/12 08:38:17;;;;;;;31.08;24.75;;;205.10;2252.80;;;;;;4900406;29;20039;-78
2022/02/12 08:40:43;;;;;;;22.08;14.85;;;205.10;2252.80;;;;;;4900638;29;20487;-76
2022/02/12 08:43:20;;;;;;;17.95;12.48;;;205.10;2252.80;;;;;;4900271;29;20032;-78
2022/02/12 08:45:49;;;;;;;25.73;16.83;;;205.20;2252.80;;;;;;4900322;29;20131;-79
2022/02/12 08:51:48;;;;;;;53.50;44.22;;;205.30;2252.80;;;;;;4854951;29;20032;-77
2022/02/12 08:54:34;;;;;;;13.02;8.70;;;205.30;2201.60;;;;;;4900223;29;20024;-79
2022/02/12 09:07:38;;;;;;;14.10;7.93;;;205.60;2176.00;;;;;;4877718;29;20112;-78
2022/02/12 09:20:13;;;;;;;16.70;9.43;;;230.50;2124.80;;;;;;4839961;29;20022;-78
2022/02/12 09:23:15;;;;;;;;;;;;;;;;;;;;;
2022/02/12 09:29:26;;;;;;;15.18;6.82;;;230.60;2176.00;;;;;;4785780;30;20594;-79
2022/02/12 09:36:18;;;;;;;11.40;6.10;;;230.70;2099.20;;;;;;4777792;29;20108;-78
2022/02/12 09:38:48;;;;;;;17.00;8.95;;;230.80;2073.60;;;;;;4865247;29;20083;-79
2022/02/12 09:41:15;;;;;;;36.60;28.52;;;230.70;2073.60;;;;;;4902315;29;20440;-79
2022/02/12 09:43:42;;;;;;;19.92;14.23;;;230.90;2073.60;;;;;;4903662;29;20457;-77
2022/02/12 09:46:49;;;;;;;18.23;10.90;;;231.00;2099.20;;;;;;4903328;29;20019;-78
2022/02/12 09:49:18;;;;;;;18.15;13.73;;;231.20;2073.60;;;;;;4903285;29;20032;-79
2022/02/12 09:51:45;;;;;;;23.48;19.05;;;231.30;2073.60;;;;;;4884738;29;20029;-81
2022/02/12 09:54:46;;;;;;;12.40;9.73;;;256.00;2073.60;;;;;;4884269;29;20031;-82
2022/02/12 10:14:20;;;;;;;11.77;7.00;;;256.50;1996.80;;;;;;4901240;29;20016;-82
2022/02/12 10:17:10;;;;;;;8.25;5.28;;;256.20;1996.80;;;;;;4884109;29;20028;-82
2022/02/12 10:19:44;;;;;;;9.82;6.00;;;256.10;1971.20;;;;;;4882328;29;20115;-77
2022/02/12 10:22:15;;;;;;;8.75;7.15;;;231.30;1945.60;;;;;;4883128;29;20130;-78
2022/02/12 10:24:53;;;;;;;9.15;5.40;;;231.30;1945.60;;;;;;4899984;29;20119;-78
2022/02/12 10:27:21;;;;;;;8.00;5.55;;;231.30;1945.60;;;;;;4899480;29;20476;-79
2022/02/12 10:29:47;;;;;;;17.35;10.70;;;256.10;1945.60;;;;;;4882949;29;20060;-82
2022/02/12 10:32:21;;;;;;;24.63;15.23;;;256.30;1945.60;;;;;;4883146;29;20492;-81
2022/02/12 10:34:49;;;;;;;18.23;11.95;;;256.40;1945.60;;;;;;4882728;29;20032;-80
2022/02/12 10:37:23;;;;;;;24.38;12.25;;;256.40;1920.00;;;;;;4881724;29;20049;-81
2022/02/12 10:40:17;;;;;;;18.70;10.75;;;256.50;1945.60;;;;;;4883076;29;20028;-81
2022/02/12 10:43:26;;;;;;;25.52;13.65;;;256.60;1920.00;;;;;;4882141;29;20080;-82
2022/02/12 10:46:07;;;;;;;30.70;16.05;;;256.70;1868.80;;;;;;4878833;29;20045;-83
2022/02/12 10:48:55;;;;;;;18.30;10.95;;;256.80;1868.80;;;;;;4882335;29;20465;-82
2022/02/12 10:51:22;;;;;;;55.70;37.17;;;256.80;1868.80;;;;;;4870936;29;20041;-82
2022/02/12 10:54:02;;;;;;;28.77;19.75;;;256.80;1894.40;;;;;;4882588;29;20029;-80
2022/02/12 10:56:55;;;;;;;48.20;31.15;;;256.80;1868.80;;;;;;4881757;29;20035;-79
2022/02/12 10:59:23;;;;;;;15.63;9.88;;;256.90;1894.40;;;;;;4882532;29;20484;-82
2022/02/12 11:02:24;;;;;;;21.95;12.55;;;256.90;1843.20;;;;;;4882455;29;20031;-82
2022/02/12 11:05:18;;;;;;;10.23;6.68;;;256.80;1868.80;;;;;;4875245;29;20651;-80
2022/02/12 11:07:44;;;;;;;19.33;8.73;;;256.90;1868.80;;;;;;4882502;29;20072;-81
2022/02/12 11:10:37;;;;;;;20.52;14.60;;;256.70;1817.60;;;;;;4882327;29;20024;-84
2022/02/12 11:13:20;;;;;;;14.75;9.38;;;256.90;1843.20;;;;;;4896336;29;20038;-85
2022/02/12 11:15:50;;;;;;;15.20;9.60;;;281.60;1817.60;;;;;;4882235;29;20033;-82
2022/02/12 11:18:21;;;;;;;31.52;18.02;;;281.80;1843.20;;;;;;4881989;29;20524;-85
2022/02/12 11:21:02;;;;;;;15.40;10.32;;;281.90;1843.20;;;;;;4881611;29;20067;-83
2022/02/12 11:23:28;;;;;;;31.48;21.73;;;282.00;1817.60;;;;;;4882020;29;20076;-82
2022/02/12 11:26:03;;;;;;;45.35;31.67;;;281.90;1817.60;;;;;;4881778;29;20355;-77
2022/02/12 11:28:32;;;;;;;13.57;10.10;;;307.20;1843.20;;;;;;4882014;29;20032;-75
2022/02/12 11:31:28;;;;;;;22.98;13.32;;;282.30;1792.00;;;;;;4881861;29;20039;-73
2022/02/12 11:34:17;;;;;;;17.90;11.50;;;282.50;1868.80;;;;;;4880270;29;20040;-79
2022/02/12 11:37:20;;;;;;;26.75;15.73;;;307.40;1792.00;;;;;;4866532;29;20048;-78
2022/02/12 11:57:53;;;;;;;11.80;8.38;;;332.90;1766.40;;;;;;4740536;30;20496;-78
2022/02/12 12:00:19;;;;;;;26.05;16.05;;;307.50;1740.80;;;;;;4734365;30;20028;-77
2022/02/12 12:02:46;;;;;;;40.30;23.23;;;307.60;1792.00;;;;;;4735515;30;20063;-79
2022/02/12 12:06:03;;;;;;;22.55;14.50;;;307.60;1766.40;;;;;;4735131;30;20024;-77
2022/02/12 12:09:21;;;;;;;23.30;13.68;;;307.80;1740.80;;;;;;4770332;30;20130;-78
2022/02/12 12:13:17;;;;;;;29.00;17.60;;;332.90;1740.80;;;;;;4768055;30;20067;-78
2022/02/12 12:15:28;;;;;;;;;;;333.30;1740.80;;;;;;4774213;30;20365;-76
2022/02/12 12:18:12;;;;;;;22.95;14.75;;;358.40;1689.60;;;;;;4770412;30;19909;-78
2022/02/12 12:34:47;;;;;;;;;;;307.70;1766.40;;;;;;4874385;29;20027;-77
2022/02/12 12:37:26;;;;;;;18.23;10.98;;;307.80;1766.40;;;;;;4892717;29;20002;-77
2022/02/12 12:40:50;;;;;;;23.50;13.90;;;333.00;1766.40;;;;;;4893358;29;20031;-77
2022/02/12 12:43:20;;;;;;;17.77;10.63;;;333.50;1766.40;;;;;;4878346;29;20492;-76
2022/02/12 12:46:21;;;;;;;18.15;11.57;;;333.60;1740.80;;;;;;4865730;29;20406;-77
2022/02/12 12:48:59;;;;;;;18.60;11.38;;;333.70;1715.20;;;;;;4874540;29;20037;-77
2022/02/12 12:51:34;;;;;;;25.42;15.07;;;333.50;1689.60;;;;;;4861967;29;20476;-75
2022/02/12 12:54:23;;;;;;;16.48;10.95;;;333.50;1715.20;;;;;;4861603;29;20024;-78
2022/02/12 12:56:54;;;;;;;25.30;17.60;;;333.30;1715.20;;;;;;4851604;29;20139;-77
2022/02/12 12:59:26;;;;;;;23.48;16.27;;;332.80;1715.20;;;;;;4862454;29;20024;-80
2022/02/12 13:02:01;;;;;;;24.30;15.68;;;307.90;1715.20;;;;;;4862177;29;20025;-80
2022/02/12 13:04:38;;;;;;;19.75;12.38;;;307.60;1740.80;;;;;;4864785;29;20033;-82
2022/02/12 13:07:05;;;;;;;21.50;14.07;;;307.50;1766.40;;;;;;4880261;29;20032;-79
2022/02/12 13:09:33;;;;;;;21.50;14.18;;;307.50;1766.40;;;;;;4880052;29;20025;-77
2022/02/12 13:12:41;;;;;;;23.80;15.10;;;307.80;1766.40;;;;;;4882675;29;20043;-76
2022/02/12 13:15:22;;;;;;;17.55;10.93;;;332.80;1766.40;;;;;;4809711;29;20038;-78
2022/02/12 13:17:54;;;;;;;13.60;9.05;;;332.90;1715.20;;;;;;4808985;29;20455;-79
2022/02/12 13:20:31;;;;;;;12.95;8.48;;;332.90;1715.20;;;;;;4857057;29;20089;-78
2022/02/12 13:23:10;;;;;;;16.85;11.32;;;308.10;1715.20;;;;;;4915397;29;20103;-78
2022/02/12 13:25:44;;;;;;;17.95;12.00;;;308.00;1715.20;;;;;;4883919;29;20084;-75
2022/02/12 13:34:51;;;;;;;16.85;11.20;;;307.60;1766.40;;;;;;4881224;29;20499;-74
2022/02/12 13:37:23;;;;;;;16.33;10.52;;;307.50;1766.40;;;;;;4883338;29;20489;-77
2022/02/12 13:39:53;;;;;;;15.27;10.07;;;307.30;1766.40;;;;;;4883476;29;20392;-77
2022/02/12 13:42:22;;;;;;;15.82;10.77;;;282.50;1766.40;;;;;;4876486;29;20142;-78
2022/02/12 13:44:59;;;;;;;22.60;12.65;;;282.50;1792.00;;;;;;4873945;29;20025;-79
2022/02/12 13:48:00;;;;;;;25.25;17.02;;;307.30;1792.00;;;;;;4871139;29;20032;-76
2022/02/12 13:50:56;;;;;;;22.52;14.73;;;282.30;1792.00;;;;;;4884062;29;20077;-77
2022/02/12 13:53:52;;;;;;;40.30;25.60;;;282.40;1792.00;;;;;;4899719;29;20078;-80
2022/02/12 13:56:59;;;;;;;39.45;22.33;;;282.30;1792.00;;;;;;4883045;29;20037;-77
2022/02/12 13:59:52;;;;;;;26.10;18.02;;;282.20;1792.00;;;;;;4899618;29;20464;-77
2022/02/12 14:02:27;;;;;;;24.35;16.05;;;307.30;1792.00;;;;;;4895628;29;20502;-78
2022/02/12 14:05:02;;;;;;;24.02;15.63;;;307.60;1766.40;;;;;;4933645;29;20031;-76
2022/02/12 14:07:28;;;;;;;31.67;19.05;;;307.70;1740.80;;;;;;4901730;29;20083;-77
2022/02/12 14:10:17;;;;;;;18.48;13.25;;;307.80;1740.80;;;;;;4933415;29;20024;-77
2022/02/12 14:13:34;;;;;;;18.15;11.98;;;307.80;1715.20;;;;;;4916820;29;20487;-79
2022/02/12 14:16:12;;;;;;;19.33;13.57;;;308.00;1740.80;;;;;;4881715;29;20091;-79
2022/02/12 14:18:46;;;;;;;55.00;35.42;;;307.90;1715.20;;;;;;4901366;29;20032;-79
2022/02/12 14:21:34;;;;;;;34.83;21.75;;;307.80;1715.20;;;;;;4901957;29;20029;-81
2022/02/12 14:24:08;;;;;;;20.15;12.98;;;307.60;1740.80;;;;;;4932858;29;20023;-79
2022/02/12 14:26:56;;;;;;;18.27;11.88;;;307.40;1766.40;;;;;;4932634;29;20464;-79
2022/02/12 14:30:13;;;;;;;18.25;11.70;;;307.40;1792.00;;;;;;4901667;29;20087;-81
2022/02/12 14:33:05;;;;;;;22.27;14.95;;;307.20;1817.60;;;;;;4896309;29;20043;-79
2022/02/12 14:38:47;;;;;;;18.80;12.95;;;282.20;1792.00;;;;;;4899591;29;20372;-79
2022/02/12 14:41:40;;;;;;;22.48;14.82;;;282.00;1817.60;;;;;;4917326;29;20029;-82
2022/02/12 14:44:25;;;;;;;20.73;13.68;;;281.70;1817.60;;;;;;4933029;29;20159;-81
2022/02/12 14:46:51;;;;;;;26.83;17.35;;;281.70;1843.20;;;;;;4932524;29;20540;-83
2022/02/12 14:49:18;;;;;;;26.73;15.60;;;256.90;1817.60;;;;;;4933088;29;20040;-80
2022/02/12 14:51:53;;;;;;;28.33;17.48;;;256.90;1792.00;;;;;;4932578;29;20024;-81
2022/02/12 14:54:20;;;;;;;26.02;16.60;;;256.70;1817.60;;;;;;4932390;29;20032;-82
2022/02/12 14:56:48;;;;;;;25.15;17.75;;;307.20;1868.80;;;;;;4901806;29;20028;-84
2022/02/12 14:59:43;;;;;;;33.38;22.08;;;256.60;1843.20;;;;;;4918461;29;20034;-84
2022/02/12 15:02:14;;;;;;;23.20;14.82;;;256.50;1868.80;;;;;;4902358;29;20023;-83
2022/02/12 15:05:02;;;;;;;26.23;16.40;;;256.50;1868.80;;;;;;4917329;29;20024;-83
2022/02/12 15:07:29;;;;;;;26.73;16.73;;;256.40;1868.80;;;;;;4933281;29;20032;-83
2022/02/12 15:10:11;;;;;;;35.50;15.55;;;256.40;1894.40;;;;;;4919049;29;20039;-84
2022/02/12 15:12:38;;;;;;;28.73;18.63;;;256.30;1894.40;;;;;;4901326;29;20024;-83
2022/02/12 15:15:04;;;;;;;37.03;21.85;;;256.20;1894.40;;;;;;4901673;29;20020;-83
2022/02/12 15:17:33;;;;;;;43.50;22.58;;;256.50;1894.40;;;;;;4901587;29;20543;-83
2022/02/12 15:19:59;;;;;;;72.28;23.02;;;256.30;1920.00;;;;;;4901274;29;20421;-82
2022/02/12 15:22:25;;;;;;;27.45;15.68;;;256.30;1894.40;;;;;;4901809;29;20043;-80
2022/02/12 15:24:51;;;;;;;26.92;18.40;;;256.20;1894.40;;;;;;4933131;29;20158;-81
2022/02/12 15:27:25;;;;;;;395.98;48.35;;;256.10;1894.40;;;;;;4932811;29;20490;-84
2022/02/12 15:29:55;;;;;;;44.92;21.05;;;256.00;1920.00;;;;;;4933036;29;20114;-83
2022/02/12 15:32:22;;;;;;;32.50;18.10;;;256.00;1920.00;;;;;;4918407;29;20538;-82
2022/02/12 15:34:58;;;;;;;28.10;16.77;;;231.20;1920.00;;;;;;4900357;29;20466;-84
2022/02/12 15:45:17;;;;;;;39.13;26.83;;;231.20;1920.00;;;;;;4751422;30;20039;-85
2022/02/12 15:48:11;;;;;;;35.83;25.73;;;231.10;1894.40;;;;;;4748540;30;20121;-79
2022/02/12 15:50:58;;;;;;;34.53;22.33;;;231.20;1920.00;;;;;;4726825;30;20066;-85
2022/02/12 15:54:10;;;;;;;32.17;22.63;;;231.10;1920.00;;;;;;4820666;29;20049;-79
2022/02/12 16:00:23;;;;;;;33.55;22.73;;;231.00;1920.00;;;;;;4823284;29;20029;-83
2022/02/12 16:03:11;;;;;;;42.40;27.90;;;230.90;1920.00;;;;;;4864625;29;20028;-79
2022/02/12 16:06:19;;;;;;;27.75;19.08;;;230.90;1920.00;;;;;;4932241;29;20394;-83
2022/02/12 16:09:07;;;;;;;28.20;18.02;;;230.90;1920.00;;;;;;4917946;29;20484;-84
2022/02/12 16:11:35;;;;;;;28.80;20.50;;;230.80;1920.00;;;;;;4932763;29;20024;-84
2022/02/12 16:14:02;;;;;;;27.15;17.83;;;230.80;1920.00;;;;;;4916728;29;20024;-82
2022/02/12 16:16:37;;;;;;;25.70;18.67;;;230.80;1945.60;;;;;;4917629;29;20091;-84
2022/02/12 16:19:03;;;;;;;25.02;17.60;;;230.70;1945.60;;;;;;4932587;29;20024;-83
2022/02/12 16:21:29;;;;;;;94.78;47.97;;;230.60;1920.00;;;;;;4932636;29;20495;-81
2022/02/12 16:23:56;;;;;;;66.82;37.38;;;230.60;1945.60;;;;;;4932514;29;20024;-82
2022/02/12 16:26:23;;;;;;;46.50;28.58;;;230.60;1945.60;;;;;;4932861;29;20468;-80
2022/02/12 16:28:51;;;;;;;49.50;29.42;;;230.60;1945.60;;;;;;4917051;29;20039;-83
2022/02/12 16:31:18;;;;;;;34.65;22.00;;;230.60;1945.60;;;;;;4918497;29;20523;-78
2022/02/12 16:33:44;;;;;;;41.40;25.20;;;230.50;1945.60;;;;;;4934516;29;20141;-83
2022/02/12 16:36:33;;;;;;;32.45;19.15;;;230.50;1971.20;;;;;;4932091;29;20028;-85
2022/02/12 16:39:08;;;;;;;34.05;22.48;;;230.50;1945.60;;;;;;4887461;29;20044;-80
2022/02/12 16:42:31;;;;;;;34.10;22.45;;;230.40;1971.20;;;;;;4931734;29;20054;-83
2022/02/12 16:45:32;;;;;;;54.97;34.20;;;230.40;1971.20;;;;;;4888519;29;20036;-83
2022/02/12 16:48:51;;;;;;;39.92;28.40;;;205.70;1971.20;;;;;;4860062;29;20036;-83
2022/02/12 16:52:44;;;;;;;54.08;33.30;;;205.70;1971.20;;;;;;4858481;29;20029;-82
2022/02/12 16:55:51;;;;;;;54.97;34.05;;;205.60;1996.80;;;;;;4858917;29;20029;-85
2022/02/12 16:59:38;;;;;;;53.67;32.90;;;205.60;1996.80;;;;;;4844484;29;20053;-84
2022/02/12 17:02:47;;;;;;;38.03;24.92;;;205.60;1971.20;;;;;;4785658;30;20043;-82
2022/02/12 17:06:28;;;;;;;57.45;40.28;;;205.40;1971.20;;;;;;4767992;30;20055;-83
2022/02/12 17:09:36;;;;;;;;;;;205.50;1971.20;;;;;;4751039;30;20028;-84
2022/02/12 17:13:13;;;;;;;37.17;23.75;;;205.50;1971.20;;;;;;4750276;30;19906;-83
2022/02/12 17:16:29;;;;;;;50.63;34.88;;;205.50;1971.20;;;;;;4752353;30;20036;-82
2022/02/12 17:19:45;;;;;;;49.97;35.95;;;205.40;1971.20;;;;;;4807352;29;20045;-82
2022/02/12 17:22:26;;;;;;;51.83;35.05;;;205.50;1971.20;;;;;;4865400;29;20014;-82
2022/02/12 17:25:59;;;;;;;81.43;57.25;;;205.40;1996.80;;;;;;4883222;29;20029;-79
2022/02/12 17:29:26;;;;;;;93.57;68.05;;;205.50;1996.80;;;;;;4858900;29;20041;-82
2022/02/12 17:32:23;;;;;;;79.43;51.67;;;205.40;1971.20;;;;;;4837407;29;20488;-81
2022/02/12 17:35:20;;;;;;;67.30;49.08;;;205.50;1996.80;;;;;;4842041;29;20157;-80
2022/02/12 17:39:05;;;;;;;68.32;44.83;;;205.50;1996.80;;;;;;4840006;29;20069;-82
2022/02/12 17:42:18;;;;;;;75.28;46.60;;;205.40;1971.20;;;;;;4813019;29;20407;-84
2022/02/12 17:53:02;;;;;;;47.00;28.17;;;205.50;1996.80;;;;;;4870951;29;20033;-82
2022/02/12 17:55:51;;;;;;;50.72;29.75;;;205.40;2022.40;;;;;;4809025;29;20118;-82
2022/02/12 17:58:20;;;;;;;49.05;27.33;;;205.40;2048.00;;;;;;4791325;29;20023;-82
2022/02/12 18:01:09;;;;;;;58.28;29.15;;;205.30;2048.00;;;;;;4882110;29;20025;-85
2022/02/12 18:03:35;;;;;;;54.42;28.27;;;205.30;2048.00;;;;;;4868202;29;20349;-79
2022/02/12 18:06:02;;;;;;;36.58;21.73;;;205.30;2048.00;;;;;;4883152;29;20032;-81